Pine, New Mexico
Current Conditions -  °F | °C
As of 7:53 AM on Wednesday 26 Nov 2014 (Local Time) from KLVS Reporting Station
Clear Clear  
Wind Chill: 32°   Ceiling: Unl
Heat Index: 37°   Visibility: 10mi
Dew Point: 21°   Wind: 7mph
Humidity: 52%   Direction: 330°NNW
Pressure: 30.25"   Gusts: NA
Location:  35.582°N, 105.558°W
Report Text: KLVS 261453Z AUTO 33006KT 10SM CLR 03/M06 A3025 RMK AO2 SLP226 T00281061 53020
Loading
Personal Weather Stations






























Interactive Weather Map New forecast layout! Learn more

10-Day Weather Forecast

Advertisements
Track Severe Weather on mobile